Terminal Aerodrome Forecast
Issued by NWS

Current Version | Previous Version | Graphics & Text | Print | Product List | Glossary On
Versions: 1 2 3 4 5 6 7 8 9 10 11 12 13 14 15 16 17 18 19 20 21
267
FTUS41 KILN 141720
TAFLUK
TAF
KLUK 141720Z 1418/1518 14010KT P6SM OVC080
     FM141900 14010KT 4SM -SN SCT015 OVC035
     FM142100 13012KT 1SM -SN FEW008 OVC012
     FM150000 14010KT 5SM -SN OVC012
     FM150500 16008KT 3SM -FZDZ OVC008
     FM151200 17006KT 2SM -FZDZ OVC004
     FM151500 18006KT 4SM BR VCSH OVC004=

USA.gov is the U.S. government's official web portal to all federal, state and local government web resources and services.